Time;durP1;ratioP1;P1;durP2;ratioP2;P2;SDS_P1;SDS_P2;PMS_P1;PMS_P2;Temp;Humidity;BMP_temperature;BMP_pressure;BME280_temperature;BME280_humidity;BME280_pressure;Samples;Min_cycle;Max_cycle;Signal;HPM_P1;HPM_P2
2021/06/19 00:00:41;;;;;;;2.55;2.22;;;23.10;71.60;;;;;;5034881;28;20021;-92
2021/06/19 00:03:07;;;;;;;4.57;3.00;;;23.10;71.60;;;;;;5043714;28;20021;-92
2021/06/19 00:05:33;;;;;;;5.20;3.40;;;23.10;72.00;;;;;;5034562;28;20031;-91
2021/06/19 00:07:59;;;;;;;5.18;3.10;;;23.00;72.50;;;;;;5045350;28;20040;-91
2021/06/19 00:10:25;;;;;;;4.50;3.05;;;22.90;72.70;;;;;;5047065;28;20068;-92
2021/06/19 00:12:54;;;;;;;4.70;2.80;;;22.90;72.70;;;;;;5030011;28;20018;-93
2021/06/19 00:15:22;;;;;;;3.15;2.25;;;22.90;72.90;;;;;;5051261;28;20051;-92
2021/06/19 00:17:48;;;;;;;4.55;3.17;;;22.90;72.80;;;;;;5030193;28;20071;-92
2021/06/19 00:20:19;;;;;;;3.97;2.60;;;22.90;72.80;;;;;;5052323;28;20037;-91
2021/06/19 00:22:45;;;;;;;3.60;2.45;;;23.00;72.70;;;;;;5049384;28;20036;-91
2021/06/19 00:25:12;;;;;;;3.60;2.47;;;23.00;72.40;;;;;;5047774;28;20024;-92
2021/06/19 00:27:38;;;;;;;3.45;2.78;;;23.00;72.40;;;;;;5030792;28;20102;-91
2021/06/19 00:30:07;;;;;;;4.07;2.80;;;23.00;72.20;;;;;;5050999;28;20095;-91
2021/06/19 00:32:33;;;;;;;5.43;2.80;;;23.00;72.10;;;;;;5047108;28;20024;-94
2021/06/19 00:34:58;;;;;;;5.45;3.35;;;23.00;72.10;;;;;;5051968;28;20108;-93
2021/06/19 00:37:24;;;;;;;6.68;4.43;;;23.00;72.20;;;;;;5048732;28;20033;-92
2021/06/19 00:39:50;;;;;;;4.07;3.50;;;22.90;72.70;;;;;;5051437;28;20513;-91
2021/06/19 00:42:19;;;;;;;5.07;3.40;;;22.90;72.90;;;;;;5050246;28;20032;-92
2021/06/19 00:44:45;;;;;;;4.57;2.92;;;22.80;73.10;;;;;;5048803;28;20063;-91
2021/06/19 00:47:11;;;;;;;3.17;2.70;;;22.70;73.10;;;;;;5049998;28;20043;-91
2021/06/19 00:49:36;;;;;;;4.47;3.55;;;22.70;73.10;;;;;;5052211;28;20139;-91
2021/06/19 00:52:03;;;;;;;3.90;2.83;;;22.70;73.20;;;;;;5046342;28;20063;-91
2021/06/19 00:54:28;;;;;;;4.20;3.13;;;22.70;73.20;;;;;;5033533;28;20167;-92
2021/06/19 00:56:54;;;;;;;3.80;2.65;;;22.70;73.10;;;;;;5046017;28;20451;-92
2021/06/19 00:59:20;;;;;;;3.42;2.67;;;22.70;73.10;;;;;;5045749;28;20051;-92
2021/06/19 01:01:46;;;;;;;3.75;2.40;;;22.70;72.90;;;;;;5049782;28;20141;-92
2021/06/19 01:04:12;;;;;;;3.22;2.38;;;22.70;72.90;;;;;;5038777;28;20072;-92
2021/06/19 01:06:38;;;;;;;3.10;2.45;;;22.80;72.80;;;;;;5046865;28;20107;-92
2021/06/19 01:09:09;;;;;;;3.60;2.28;;;22.80;72.80;;;;;;5029800;28;20033;-91
2021/06/19 01:11:36;;;;;;;2.75;2.20;;;22.80;72.80;;;;;;5032647;28;20021;-91
2021/06/19 01:14:12;;;;;;;3.03;2.25;;;22.80;72.60;;;;;;5033203;28;20029;-91
2021/06/19 01:16:39;;;;;;;3.17;2.10;;;22.80;72.50;;;;;;5032673;28;20029;-91
2021/06/19 01:19:04;;;;;;;3.08;2.03;;;22.80;72.40;;;;;;5035000;28;20033;-91
2021/06/19 01:21:31;;;;;;;2.28;1.83;;;22.80;72.30;;;;;;5046244;28;20036;-91
2021/06/19 01:24:01;;;;;;;2.75;1.73;;;22.80;72.30;;;;;;5032482;28;20023;-91
2021/06/19 01:26:31;;;;;;;2.85;2.10;;;22.80;72.20;;;;;;5031838;28;20043;-93
2021/06/19 01:28:58;;;;;;;2.78;1.60;;;22.80;72.00;;;;;;5032749;28;20021;-94
2021/06/19 01:31:24;;;;;;;1.88;1.77;;;22.70;71.90;;;;;;5050943;28;20021;-93
2021/06/19 01:33:50;;;;;;;2.60;1.70;;;22.70;71.90;;;;;;5044651;28;20435;-91
2021/06/19 01:36:18;;;;;;;1.55;1.45;;;22.70;72.00;;;;;;5041487;28;20025;-93
2021/06/19 01:38:49;;;;;;;1.50;1.40;;;22.70;71.90;;;;;;5043892;28;20124;-94
2021/06/19 01:41:21;;;;;;;2.15;1.60;;;22.70;71.80;;;;;;5035845;28;20040;-94
2021/06/19 01:43:48;;;;;;;2.33;1.40;;;22.70;71.60;;;;;;5055337;28;20116;-94
2021/06/19 01:46:14;;;;;;;1.90;1.50;;;22.80;71.70;;;;;;5037177;28;20021;-93
2021/06/19 01:48:41;;;;;;;1.77;1.30;;;22.80;71.50;;;;;;5054320;28;20430;-93
2021/06/19 01:51:11;;;;;;;1.38;1.20;;;22.70;71.40;;;;;;5054561;28;20037;-93
2021/06/19 01:53:41;;;;;;;1.33;1.23;;;22.70;71.40;;;;;;5036764;28;20574;-93
2021/06/19 01:56:09;;;;;;;1.20;1.10;;;22.70;71.40;;;;;;5052055;28;20115;-93
2021/06/19 01:58:35;;;;;;;2.35;1.20;;;22.80;71.40;;;;;;5036610;28;20029;-94
2021/06/19 02:01:06;;;;;;;1.77;1.10;;;22.80;71.30;;;;;;5053268;28;20112;-94
2021/06/19 02:03:32;;;;;;;1.40;1.30;;;22.70;71.20;;;;;;5033067;28;20025;-95
2021/06/19 02:05:57;;;;;;;2.35;1.30;;;22.70;71.30;;;;;;5036960;28;20036;-94
2021/06/19 02:08:29;;;;;;;2.47;1.23;;;22.60;71.50;;;;;;5053877;28;20053;-94
2021/06/19 02:10:58;;;;;;;2.73;1.20;;;22.60;71.40;;;;;;5037238;28;20029;-94
2021/06/19 02:13:24;;;;;;;1.20;1.10;;;22.70;71.40;;;;;;5049278;28;20025;-95
2021/06/19 02:15:50;;;;;;;2.28;1.40;;;22.70;71.40;;;;;;5033012;28;20032;-95
2021/06/19 02:18:16;;;;;;;1.35;1.10;;;22.60;71.40;;;;;;5053922;28;20112;-93
2021/06/19 02:20:43;;;;;;;1.13;1.00;;;22.60;71.50;;;;;;5027919;28;20030;-92
2021/06/19 02:23:08;;;;;;;1.70;1.20;;;22.60;71.40;;;;;;5035761;28;20041;-94
2021/06/19 02:25:35;;;;;;;1.35;1.20;;;22.60;71.40;;;;;;5033535;28;20509;-94
2021/06/19 02:28:09;;;;;;;1.60;1.10;;;22.60;71.40;;;;;;5033637;28;20032;-95
2021/06/19 02:30:46;;;;;;;1.40;1.30;;;22.70;71.40;;;;;;5044492;28;20032;-91
2021/06/19 02:33:13;;;;;;;1.85;1.50;;;22.60;71.30;;;;;;5042754;28;20033;-91
2021/06/19 02:35:41;;;;;;;1.23;1.10;;;22.60;71.50;;;;;;5032889;28;20030;-90
2021/06/19 02:38:08;;;;;;;1.13;1.00;;;22.60;71.50;;;;;;5024498;28;20029;-90
2021/06/19 02:40:35;;;;;;;1.50;1.38;;;22.60;71.50;;;;;;5041779;28;20021;-90
2021/06/19 02:43:00;;;;;;;1.27;1.13;;;22.60;71.50;;;;;;5030987;28;20113;-90
2021/06/19 02:45:27;;;;;;;2.13;1.33;;;22.60;71.50;;;;;;5026993;28;20111;-91
2021/06/19 02:47:55;;;;;;;2.10;1.40;;;22.60;71.60;;;;;;5053760;28;20390;-91
2021/06/19 02:50:26;;;;;;;1.23;1.13;;;22.60;71.60;;;;;;5051429;28;20021;-93
2021/06/19 02:52:53;;;;;;;1.02;1.02;;;22.50;71.50;;;;;;5047925;28;20025;-92
2021/06/19 02:55:23;;;;;;;1.20;1.10;;;22.60;71.60;;;;;;5036203;28;20025;-93
2021/06/19 02:57:48;;;;;;;2.45;1.25;;;22.60;71.60;;;;;;5054017;28;20128;-94
2021/06/19 03:00:16;;;;;;;1.95;1.30;;;22.60;71.60;;;;;;5033913;28;20484;-93
2021/06/19 03:02:42;;;;;;;1.48;1.38;;;22.60;71.60;;;;;;5031790;28;20040;-94
2021/06/19 03:05:09;;;;;;;1.45;1.35;;;22.60;71.60;;;;;;5053339;28;20116;-95
2021/06/19 03:07:35;;;;;;;1.27;1.10;;;22.60;71.50;;;;;;5027536;28;20491;-94
2021/06/19 03:10:13;;;;;;;1.80;1.30;;;22.70;71.50;;;;;;5050865;28;20032;-95
2021/06/19 03:12:39;;;;;;;1.40;1.30;;;22.80;71.40;;;;;;5049285;28;20032;-95
2021/06/19 03:15:07;;;;;;;1.73;1.40;;;22.80;71.20;;;;;;5035468;28;20020;-90
2021/06/19 03:17:33;;;;;;;1.40;1.30;;;22.80;71.20;;;;;;5052477;28;20035;-90
2021/06/19 03:19:58;;;;;;;1.88;1.48;;;22.90;71.20;;;;;;5053373;28;20032;-91
2021/06/19 03:22:24;;;;;;;2.40;1.40;;;22.90;71.20;;;;;;5053303;28;20072;-91
2021/06/19 03:24:49;;;;;;;2.00;1.30;;;22.80;71.20;;;;;;5035425;28;20028;-91
2021/06/19 03:27:17;;;;;;;1.45;1.35;;;22.90;71.90;;;;;;5064555;28;20140;-91
2021/06/19 03:29:43;;;;;;;1.63;1.30;;;22.90;71.20;;;;;;5030326;28;20021;-92
2021/06/19 03:32:09;;;;;;;1.40;1.30;;;22.90;71.20;;;;;;5029634;28;20482;-91
2021/06/19 03:34:41;;;;;;;2.33;1.80;;;22.90;71.20;;;;;;5029413;28;20029;-90
2021/06/19 03:37:07;;;;;;;3.35;1.90;;;22.80;71.20;;;;;;5048134;28;20044;-90
2021/06/19 03:39:35;;;;;;;2.75;2.10;;;22.80;71.40;;;;;;5047110;28;20033;-90
2021/06/19 03:42:01;;;;;;;2.35;1.60;;;22.80;71.50;;;;;;5031241;28;20032;-88
2021/06/19 03:44:28;;;;;;;1.73;1.63;;;22.70;71.70;;;;;;5030463;28;20016;-91
2021/06/19 03:46:53;;;;;;;3.20;2.25;;;22.70;71.70;;;;;;5052603;28;20044;-90
2021/06/19 03:49:20;;;;;;;2.10;1.80;;;22.70;71.90;;;;;;5033815;28;20029;-91
2021/06/19 03:51:47;;;;;;;2.28;1.90;;;22.70;71.90;;;;;;5051186;28;20030;-92
2021/06/19 03:54:13;;;;;;;2.17;2.00;;;22.70;72.00;;;;;;5033600;28;20024;-91
2021/06/19 03:56:40;;;;;;;3.00;2.70;;;22.60;71.90;;;;;;5035945;28;20025;-92
2021/06/19 03:59:06;;;;;;;2.38;2.00;;;22.60;72.40;;;;;;5034576;28;20021;-90
2021/06/19 04:01:31;;;;;;;2.40;2.20;;;22.60;72.30;;;;;;5031327;28;20048;-90
2021/06/19 04:03:57;;;;;;;3.58;2.70;;;22.60;72.30;;;;;;5052195;28;20028;-91
2021/06/19 04:06:24;;;;;;;2.67;2.25;;;22.60;72.20;;;;;;5050435;28;20021;-92
2021/06/19 04:08:50;;;;;;;2.97;2.17;;;22.60;72.20;;;;;;5034856;28;20021;-91
2021/06/19 04:11:15;;;;;;;2.20;2.00;;;22.70;72.20;;;;;;5034526;28;20115;-91
2021/06/19 04:13:41;;;;;;;3.00;2.70;;;22.70;72.10;;;;;;5051994;28;20491;-91
2021/06/19 04:16:11;;;;;;;3.53;2.80;;;22.70;72.00;;;;;;5046676;28;20467;-92
2021/06/19 04:18:40;;;;;;;3.17;2.50;;;22.70;72.00;;;;;;5035441;28;20037;-92
2021/06/19 04:21:07;;;;;;;4.60;3.30;;;22.70;72.00;;;;;;5052329;28;20104;-91
2021/06/19 04:23:33;;;;;;;4.07;2.70;;;22.70;72.00;;;;;;5040577;28;20040;-92
2021/06/19 04:26:00;;;;;;;3.08;2.50;;;22.70;72.00;;;;;;5052524;28;20020;-89
2021/06/19 04:28:26;;;;;;;2.95;1.80;;;22.70;71.90;;;;;;5047797;28;20076;-91
2021/06/19 04:30:53;;;;;;;3.58;3.08;;;22.70;71.80;;;;;;5050884;28;20060;-91
2021/06/19 04:33:19;;;;;;;4.43;2.65;;;22.80;71.90;;;;;;5032823;28;20047;-91
2021/06/19 04:35:45;;;;;;;2.72;2.50;;;22.80;71.90;;;;;;5033893;28;20558;-90
2021/06/19 04:38:10;;;;;;;2.88;2.58;;;22.80;71.90;;;;;;5051535;28;20078;-91
2021/06/19 04:40:52;;;;;;;2.53;2.30;;;22.80;71.70;;;;;;5030499;28;20021;-92
2021/06/19 04:43:24;;;;;;;3.28;2.97;;;22.80;71.60;;;;;;5052018;28;20043;-92
2021/06/19 04:45:50;;;;;;;4.07;3.50;;;22.80;71.60;;;;;;5030517;28;20033;-91
2021/06/19 04:48:15;;;;;;;4.05;3.40;;;22.70;71.70;;;;;;5028462;28;20017;-93
2021/06/19 04:50:41;;;;;;;3.35;2.95;;;22.70;71.80;;;;;;5051061;28;20040;-93
2021/06/19 04:53:07;;;;;;;2.20;2.00;;;22.70;71.80;;;;;;5050998;28;20433;-93
2021/06/19 04:55:33;;;;;;;3.45;3.15;;;22.80;71.70;;;;;;5034545;28;20036;-92
2021/06/19 04:58:03;;;;;;;3.13;2.78;;;22.80;71.60;;;;;;5033011;28;20025;-92
2021/06/19 05:00:28;;;;;;;3.22;2.72;;;22.80;71.60;;;;;;5033923;28;20135;-93
2021/06/19 05:02:55;;;;;;;2.95;2.33;;;22.80;71.50;;;;;;5050874;28;20395;-91
2021/06/19 05:05:21;;;;;;;2.17;1.98;;;22.80;71.50;;;;;;5051551;28;20029;-92
2021/06/19 05:07:47;;;;;;;3.40;2.50;;;22.90;71.50;;;;;;5033929;28;20029;-95
2021/06/19 05:10:13;;;;;;;2.13;1.92;;;22.90;71.40;;;;;;5035731;28;20032;-94
2021/06/19 05:12:47;;;;;;;3.95;2.10;;;22.90;71.30;;;;;;5037915;28;20455;-93
2021/06/19 05:15:17;;;;;;;2.50;2.17;;;22.90;71.40;;;;;;5035265;28;20032;-93
2021/06/19 05:17:43;;;;;;;2.00;1.90;;;22.90;71.50;;;;;;5039241;28;20032;-93
2021/06/19 05:20:09;;;;;;;2.42;2.22;;;22.90;71.50;;;;;;5035477;28;20493;-92
2021/06/19 05:22:36;;;;;;;3.95;2.70;;;22.90;71.50;;;;;;5052293;28;20036;-91
2021/06/19 05:25:04;;;;;;;3.75;3.35;;;22.80;71.70;;;;;;5055938;28;20025;-96
2021/06/19 05:27:29;;;;;;;3.25;2.95;;;22.80;72.00;;;;;;5038605;28;20025;-95
2021/06/19 05:29:55;;;;;;;4.88;3.83;;;22.80;72.00;;;;;;5039657;28;20553;-96
2021/06/19 05:32:22;;;;;;;2.72;2.45;;;22.70;72.40;;;;;;5044839;28;21583;-96
2021/06/19 05:34:48;;;;;;;3.08;2.15;;;22.60;72.50;;;;;;5048650;28;20029;-93
2021/06/19 05:37:13;;;;;;;4.00;3.50;;;22.70;72.30;;;;;;5028912;28;20017;-96
2021/06/19 05:39:39;;;;;;;3.42;3.13;;;22.70;72.50;;;;;;5045996;28;20029;-96
2021/06/19 05:42:05;;;;;;;3.20;2.90;;;22.60;72.60;;;;;;5033168;28;20033;-96
2021/06/19 05:44:31;;;;;;;3.92;3.58;;;22.60;72.70;;;;;;5051366;28;20024;-95
2021/06/19 05:46:56;;;;;;;3.20;2.90;;;22.60;72.70;;;;;;5032835;28;20025;-94
2021/06/19 05:49:22;;;;;;;4.15;3.40;;;22.50;72.60;;;;;;5030198;28;20496;-96
2021/06/19 05:51:47;;;;;;;4.63;3.28;;;22.60;72.50;;;;;;5033106;28;20039;-95
2021/06/19 05:54:13;;;;;;;3.92;3.53;;;22.60;72.50;;;;;;5023966;28;20028;-93
2021/06/19 05:56:39;;;;;;;4.75;4.22;;;22.60;72.30;;;;;;5033815;28;20060;-93
2021/06/19 05:59:04;;;;;;;3.65;3.35;;;22.60;72.20;;;;;;5041029;28;20358;-93
2021/06/19 06:01:30;;;;;;;4.20;3.80;;;22.60;72.30;;;;;;5041404;28;20143;-93
2021/06/19 06:04:00;;;;;;;3.92;3.50;;;22.50;72.40;;;;;;5030353;28;20129;-92
2021/06/19 06:06:26;;;;;;;4.35;2.90;;;22.50;72.50;;;;;;5033624;28;20509;-93
2021/06/19 06:08:53;;;;;;;5.10;4.30;;;22.60;72.50;;;;;;5050431;28;20028;-92
2021/06/19 06:11:19;;;;;;;6.55;4.38;;;22.70;73.00;;;;;;5032863;28;20021;-91
2021/06/19 06:13:44;;;;;;;6.18;5.28;;;22.70;72.20;;;;;;5040877;28;20024;-92
2021/06/19 06:16:10;;;;;;;6.18;5.55;;;22.70;72.00;;;;;;5053076;28;20037;-92
2021/06/19 06:18:36;;;;;;;7.00;5.53;;;22.80;71.80;;;;;;5046245;28;20041;-93
2021/06/19 06:21:03;;;;;;;6.18;4.75;;;22.80;71.70;;;;;;5044094;28;20025;-92
2021/06/19 06:23:30;;;;;;;6.00;4.90;;;22.80;71.50;;;;;;5031903;28;20048;-94
2021/06/19 06:25:56;;;;;;;4.75;4.00;;;22.90;71.40;;;;;;5054848;28;20043;-94
2021/06/19 06:28:22;;;;;;;6.15;5.20;;;22.90;71.30;;;;;;5033035;28;20539;-95
2021/06/19 06:30:59;;;;;;;7.88;6.22;;;23.00;71.10;;;;;;5052525;28;20021;-95
2021/06/19 06:33:26;;;;;;;7.15;5.60;;;23.00;70.70;;;;;;5034608;28;20025;-94
2021/06/19 06:35:54;;;;;;;8.57;6.93;;;23.00;70.50;;;;;;5034110;28;20045;-96
2021/06/19 06:38:20;;;;;;;10.25;7.85;;;23.00;70.10;;;;;;5038756;28;20538;-90
2021/06/19 06:40:45;;;;;;;9.02;7.20;;;22.90;69.80;;;;;;5032054;28;20026;-91
2021/06/19 06:43:11;;;;;;;9.07;7.50;;;23.00;69.70;;;;;;5052474;28;20057;-95
2021/06/19 06:45:36;;;;;;;10.80;7.30;;;23.10;69.20;;;;;;5035234;28;20103;-92
2021/06/19 06:48:02;;;;;;;7.07;5.32;;;23.30;68.60;;;;;;5052299;28;20594;-92
2021/06/19 06:50:28;;;;;;;7.57;5.78;;;23.60;68.10;;;;;;5053271;28;20112;-93
2021/06/19 06:52:54;;;;;;;8.23;7.20;;;23.90;67.30;;;;;;5050858;28;20025;-92
2021/06/19 06:55:20;;;;;;;10.07;8.18;;;24.00;66.30;;;;;;5036974;28;20111;-92
2021/06/19 06:57:46;;;;;;;9.20;7.07;;;23.90;66.00;;;;;;5034697;28;20112;-92
2021/06/19 07:00:12;;;;;;;8.48;7.25;;;23.90;66.00;;;;;;5052941;28;20052;-92
2021/06/19 07:02:42;;;;;;;7.80;6.10;;;24.00;65.90;;;;;;5033675;28;20041;-91
2021/06/19 07:05:09;;;;;;;8.63;5.43;;;24.30;65.60;;;;;;5048591;28;20024;-93
2021/06/19 07:07:38;;;;;;;8.52;6.20;;;24.50;64.80;;;;;;5051670;28;20029;-93
2021/06/19 07:10:06;;;;;;;6.13;4.90;;;24.60;64.10;;;;;;5053335;28;20096;-93
2021/06/19 07:12:32;;;;;;;6.47;4.85;;;24.60;63.50;;;;;;5033148;28;20025;-93
2021/06/19 07:14:57;;;;;;;7.65;5.80;;;24.60;63.10;;;;;;5053202;28;20399;-90
2021/06/19 07:17:23;;;;;;;6.93;5.18;;;24.50;62.10;;;;;;5051512;28;20047;-93
2021/06/19 07:19:48;;;;;;;7.07;4.80;;;24.40;62.00;;;;;;5049323;28;20025;-92
2021/06/19 07:22:14;;;;;;;5.90;3.95;;;24.50;62.10;;;;;;5040273;28;20041;-91
2021/06/19 07:24:40;;;;;;;7.40;4.05;;;24.50;62.20;;;;;;5032036;28;20032;-91
2021/06/19 07:27:06;;;;;;;4.00;3.08;;;24.40;62.20;;;;;;5031197;28;20028;-93
2021/06/19 07:29:32;;;;;;;7.63;4.88;;;24.30;62.20;;;;;;5030498;28;20376;-93
2021/06/19 07:32:04;;;;;;;7.05;4.50;;;24.20;61.90;;;;;;5036869;28;20036;-96
2021/06/19 07:34:30;;;;;;;7.55;5.70;;;24.20;62.00;;;;;;5051164;28;20036;-94
2021/06/19 07:36:56;;;;;;;8.07;4.60;;;24.10;61.90;;;;;;5032026;28;20556;-88
2021/06/19 07:39:21;;;;;;;3.38;2.60;;;24.00;62.40;;;;;;5028714;28;20064;-87
2021/06/19 07:41:47;;;;;;;6.28;4.38;;;24.20;62.40;;;;;;5048276;28;20040;-89
2021/06/19 07:44:14;;;;;;;5.82;4.40;;;24.20;62.10;;;;;;5035496;28;20029;-89
2021/06/19 07:46:41;;;;;;;6.20;4.60;;;24.20;62.10;;;;;;5046158;28;20029;-90
2021/06/19 07:49:07;;;;;;;4.32;3.47;;;24.30;61.90;;;;;;5031423;28;20185;-93
2021/06/19 07:51:32;;;;;;;6.03;5.00;;;24.50;61.80;;;;;;5045527;28;20026;-92
2021/06/19 07:53:58;;;;;;;4.80;3.90;;;24.50;61.10;;;;;;5031078;28;20079;-95
2021/06/19 07:56:25;;;;;;;5.05;3.97;;;24.60;61.00;;;;;;5032564;28;20029;-93
2021/06/19 07:58:51;;;;;;;5.68;4.13;;;24.70;60.70;;;;;;5033623;28;20052;-92
2021/06/19 08:01:16;;;;;;;7.75;5.30;;;24.80;60.70;;;;;;5045581;28;20048;-96
2021/06/19 08:03:42;;;;;;;6.63;4.95;;;24.80;60.30;;;;;;5031571;28;20037;-94
2021/06/19 08:06:08;;;;;;;7.22;5.63;;;24.90;60.00;;;;;;5034174;28;20075;-91
2021/06/19 08:08:36;;;;;;;10.02;6.45;;;25.00;59.90;;;;;;5048967;28;20021;-96
2021/06/19 08:11:01;;;;;;;7.18;5.50;;;25.10;59.50;;;;;;5045439;28;20497;-93
2021/06/19 08:13:30;;;;;;;7.13;5.20;;;25.30;59.70;;;;;;5045049;28;20041;-95
2021/06/19 08:16:18;;;;;;;7.30;6.03;;;25.40;59.30;;;;;;5030105;28;20029;-89
2021/06/19 08:19:04;;;;;;;8.48;6.30;;;25.60;58.60;;;;;;5030409;28;20048;-93
2021/06/19 08:22:25;;;;;;;7.03;5.18;;;25.60;58.50;;;;;;5028016;28;20095;-92
2021/06/19 08:24:50;;;;;;;7.53;5.28;;;25.80;59.20;;;;;;5047747;28;20041;-91
2021/06/19 08:27:22;;;;;;;7.25;5.00;;;25.70;58.30;;;;;;5037510;28;20021;-92
2021/06/19 08:29:48;;;;;;;7.40;5.68;;;25.80;58.20;;;;;;5032590;28;20032;-90
2021/06/19 08:32:14;;;;;;;7.32;4.90;;;25.80;57.80;;;;;;5045026;28;20017;-89
2021/06/19 08:34:40;;;;;;;6.35;4.97;;;25.80;57.90;;;;;;5031296;28;20111;-88
2021/06/19 08:37:06;;;;;;;8.95;5.97;;;25.70;57.90;;;;;;5025734;28;20116;-88
2021/06/19 08:39:32;;;;;;;8.27;5.63;;;25.70;57.90;;;;;;5047399;28;20075;-88
2021/06/19 08:41:58;;;;;;;9.13;7.38;;;25.50;57.90;;;;;;5030089;28;20033;-89
2021/06/19 08:44:25;;;;;;;7.53;5.55;;;25.40;57.90;;;;;;5028905;28;20033;-91
2021/06/19 08:46:53;;;;;;;9.20;6.60;;;25.30;58.20;;;;;;5029004;28;20029;-91
2021/06/19 08:49:24;;;;;;;8.23;5.75;;;25.20;58.30;;;;;;5026955;28;20025;-90
2021/06/19 08:51:52;;;;;;;7.95;5.68;;;25.10;58.70;;;;;;5047489;28;20104;-91
2021/06/19 08:54:19;;;;;;;9.55;6.20;;;25.10;58.90;;;;;;5048637;28;20025;-91
2021/06/19 08:56:46;;;;;;;7.97;6.35;;;25.20;58.80;;;;;;5049589;28;20028;-90
2021/06/19 08:59:12;;;;;;;8.25;5.95;;;25.10;58.60;;;;;;5021842;28;20497;-91
2021/06/19 09:01:38;;;;;;;7.43;6.05;;;25.20;58.60;;;;;;5029465;28;20029;-91
2021/06/19 09:04:09;;;;;;;6.20;5.10;;;25.40;58.50;;;;;;5045430;28;20467;-90
2021/06/19 09:06:39;;;;;;;6.47;4.80;;;25.70;58.20;;;;;;5027584;28;20025;-90
2021/06/19 09:09:14;;;;;;;7.00;5.60;;;25.90;57.70;;;;;;5045153;28;20041;-89
2021/06/19 09:11:50;;;;;;;5.03;3.78;;;26.00;56.90;;;;;;5046818;28;20120;-89
2021/06/19 09:14:19;;;;;;;5.53;4.93;;;26.00;57.10;;;;;;5027686;28;20093;-88
2021/06/19 09:16:58;;;;;;;4.20;3.58;;;25.90;56.90;;;;;;5029737;28;20361;-88
2021/06/19 09:19:39;;;;;;;6.55;5.35;;;26.00;57.00;;;;;;5028387;28;20467;-89
2021/06/19 09:22:08;;;;;;;5.07;4.53;;;25.90;56.80;;;;;;5028873;28;20065;-88
2021/06/19 09:24:46;;;;;;;4.32;3.92;;;25.90;57.00;;;;;;5047795;28;20053;-89
2021/06/19 09:27:30;;;;;;;4.30;3.70;;;25.90;57.00;;;;;;5046387;28;20020;-88
2021/06/19 09:30:11;;;;;;;4.82;3.83;;;26.10;57.10;;;;;;5044786;28;20052;-90
2021/06/19 09:32:42;;;;;;;4.97;4.07;;;25.90;56.60;;;;;;5028531;28;20025;-92
2021/06/19 09:35:15;;;;;;;5.53;4.55;;;25.80;56.70;;;;;;5030147;28;20291;-92
2021/06/19 09:37:43;;;;;;;5.40;4.38;;;25.90;56.90;;;;;;5029614;28;20036;-92
2021/06/19 09:40:25;;;;;;;6.00;5.40;;;26.00;56.70;;;;;;5046970;28;20029;-91
2021/06/19 09:42:51;;;;;;;;;;;25.90;56.40;;;;;;5046647;28;20040;-88
2021/06/19 09:45:19;;;;;;;4.65;3.63;;;25.80;56.70;;;;;;5029003;28;20317;-90
2021/06/19 09:47:45;;;;;;;6.50;5.00;;;25.80;56.80;;;;;;5046828;28;20033;-89
2021/06/19 09:50:11;;;;;;;7.60;6.28;;;25.90;56.60;;;;;;5049254;28;20033;-88
2021/06/19 09:52:36;;;;;;;7.40;6.50;;;25.80;56.40;;;;;;5047791;28;20029;-87
2021/06/19 09:55:08;;;;;;;5.35;4.82;;;25.80;56.30;;;;;;5050690;28;20021;-88
2021/06/19 09:57:41;;;;;;;7.72;6.47;;;25.60;56.60;;;;;;5051322;28;20029;-88
2021/06/19 10:00:09;;;;;;;5.78;4.90;;;25.50;56.80;;;;;;5049454;28;20127;-89
2021/06/19 10:02:35;;;;;;;5.43;4.35;;;25.50;57.10;;;;;;5051838;28;20070;-89
2021/06/19 10:05:01;;;;;;;7.93;5.60;;;25.50;57.20;;;;;;5049225;28;20083;-89
2021/06/19 10:07:34;;;;;;;5.75;4.70;;;25.40;57.30;;;;;;5051315;28;20029;-88
2021/06/19 10:10:01;;;;;;;8.85;6.68;;;25.60;57.30;;;;;;5032788;28;20633;-86
2021/06/19 10:12:32;;;;;;;9.25;6.75;;;25.60;57.10;;;;;;5046399;28;20029;-88
2021/06/19 10:15:00;;;;;;;5.80;5.18;;;25.60;57.00;;;;;;5032423;28;20059;-89
2021/06/19 10:17:32;;;;;;;7.60;5.60;;;25.70;57.00;;;;;;5051627;28;20295;-89
2021/06/19 10:20:01;;;;;;;;;;;25.80;56.90;;;;;;5051155;28;20045;-89
2021/06/19 10:22:28;;;;;;;6.88;5.55;;;26.10;57.00;;;;;;5033200;28;19978;-88
2021/06/19 10:24:55;;;;;;;7.32;6.18;;;26.30;56.60;;;;;;5027098;28;20021;-90
2021/06/19 10:27:23;;;;;;;7.00;6.13;;;26.30;56.20;;;;;;5031223;28;20029;-88
2021/06/19 10:29:51;;;;;;;6.22;5.63;;;26.30;56.00;;;;;;5030173;28;20513;-91
2021/06/19 10:32:36;;;;;;;7.38;6.30;;;26.30;56.00;;;;;;5051780;28;20021;-90
2021/06/19 10:35:03;;;;;;;5.03;4.38;;;26.30;55.50;;;;;;5051660;28;20032;-90
2021/06/19 10:37:30;;;;;;;6.88;5.95;;;26.20;55.70;;;;;;5051097;28;20025;-88
2021/06/19 10:39:56;;;;;;;5.32;4.07;;;26.30;55.40;;;;;;5050142;28;20036;-88
2021/06/19 10:42:33;;;;;;;5.03;4.53;;;26.30;55.60;;;;;;5029445;28;20033;-89
2021/06/19 10:45:06;;;;;;;5.40;4.50;;;26.30;55.30;;;;;;5030561;28;20025;-91
2021/06/19 10:47:33;;;;;;;7.10;4.95;;;26.30;55.30;;;;;;5033308;28;20100;-90
2021/06/19 10:50:00;;;;;;;6.13;4.88;;;26.20;55.40;;;;;;5051056;28;20020;-88
2021/06/19 10:52:38;;;;;;;5.03;4.20;;;26.30;55.30;;;;;;5048925;28;20414;-89
2021/06/19 10:55:14;;;;;;;5.18;4.68;;;26.30;55.30;;;;;;5031257;28;20024;-90
2021/06/19 10:58:04;;;;;;;3.67;3.35;;;26.30;55.00;;;;;;5031968;28;20025;-89
2021/06/19 11:00:59;;;;;;;5.30;4.40;;;26.30;55.10;;;;;;5031959;28;20200;-89
2021/06/19 11:03:47;;;;;;;6.88;6.18;;;26.40;55.00;;;;;;5026926;28;20065;-89
2021/06/19 11:06:40;;;;;;;5.20;4.47;;;26.30;54.60;;;;;;5030469;28;20432;-89
2021/06/19 11:09:16;;;;;;;4.68;3.95;;;26.30;54.90;;;;;;5028282;28;20056;-89
2021/06/19 11:11:48;;;;;;;6.93;6.22;;;26.30;55.00;;;;;;5031891;28;20033;-90
2021/06/19 11:14:40;;;;;;;8.63;6.45;;;26.10;54.80;;;;;;5032495;28;20036;-90
2021/06/19 11:17:06;;;;;;;6.30;5.18;;;26.10;55.00;;;;;;5031262;28;20060;-90
2021/06/19 11:19:40;;;;;;;6.57;5.25;;;26.20;55.00;;;;;;5048216;28;20074;-89
2021/06/19 11:22:41;;;;;;;6.00;5.25;;;26.30;54.80;;;;;;5031359;28;20033;-89
2021/06/19 11:25:10;;;;;;;6.65;6.03;;;26.30;54.70;;;;;;5049662;28;20618;-89
2021/06/19 11:27:55;;;;;;;6.30;5.70;;;26.40;54.60;;;;;;5048931;28;20039;-89
2021/06/19 11:30:51;;;;;;;5.30;4.47;;;26.40;54.60;;;;;;5029433;28;20430;-89
2021/06/19 11:33:19;;;;;;;5.90;5.30;;;26.40;54.60;;;;;;5026263;28;20517;-88
2021/06/19 11:35:46;;;;;;;6.65;5.95;;;26.40;54.80;;;;;;5032126;28;20025;-89
2021/06/19 11:38:13;;;;;;;6.70;5.97;;;26.40;54.70;;;;;;5047207;28;20036;-89
2021/06/19 11:40:39;;;;;;;5.25;4.75;;;26.40;54.80;;;;;;5048882;28;20025;-88
2021/06/19 11:43:06;;;;;;;6.95;5.32;;;26.40;54.80;;;;;;5045064;28;20047;-89
2021/06/19 11:45:37;;;;;;;5.78;5.28;;;26.30;54.60;;;;;;5030657;28;20021;-89
2021/06/19 11:48:21;;;;;;;7.10;6.40;;;26.20;54.90;;;;;;5049285;28;20044;-88
2021/06/19 11:50:46;;;;;;;5.75;5.15;;;26.20;55.00;;;;;;5047402;28;20067;-88
2021/06/19 11:53:35;;;;;;;7.97;7.18;;;26.30;55.10;;;;;;5046743;28;20029;-90
2021/06/19 11:56:13;;;;;;;8.30;7.50;;;26.20;54.90;;;;;;5049267;28;20033;-89
2021/06/19 11:58:42;;;;;;;8.02;6.95;;;26.10;55.00;;;;;;5049292;28;20443;-88
2021/06/19 12:01:08;;;;;;;7.70;6.95;;;26.20;55.00;;;;;;5047804;28;20151;-89
2021/06/19 12:03:33;;;;;;;6.93;6.22;;;26.30;54.90;;;;;;5030554;28;20481;-89
2021/06/19 12:05:59;;;;;;;8.60;7.47;;;26.30;54.90;;;;;;5049075;28;20029;-89
2021/06/19 12:08:25;;;;;;;6.60;5.97;;;26.30;54.80;;;;;;5045314;28;20076;-88
2021/06/19 12:10:50;;;;;;;7.38;6.68;;;26.30;54.90;;;;;;5029365;28;20946;-89
2021/06/19 12:13:46;;;;;;;8.07;7.28;;;26.30;55.00;;;;;;5054737;28;20021;-88
2021/06/19 12:16:11;;;;;;;7.70;6.88;;;26.30;54.90;;;;;;5044722;28;20140;-89
2021/06/19 12:18:37;;;;;;;8.60;7.60;;;26.20;55.00;;;;;;5029670;28;20494;-89
2021/06/19 12:21:10;;;;;;;8.23;7.43;;;26.20;55.20;;;;;;5059166;28;20107;-89
2021/06/19 12:23:45;;;;;;;8.32;7.47;;;26.10;55.20;;;;;;5045860;28;20040;-88
2021/06/19 12:26:15;;;;;;;7.13;6.15;;;26.20;55.20;;;;;;5029997;28;20045;-89
2021/06/19 12:28:49;;;;;;;7.10;6.03;;;26.30;55.00;;;;;;5026074;28;20537;-87
2021/06/19 12:31:16;;;;;;;8.43;7.65;;;26.50;54.80;;;;;;5048090;28;20017;-89
2021/06/19 12:33:43;;;;;;;8.00;7.20;;;26.50;54.50;;;;;;5049016;28;20021;-90
2021/06/19 12:36:11;;;;;;;8.05;7.25;;;26.50;54.30;;;;;;5046624;28;20049;-85
2021/06/19 12:38:37;;;;;;;8.35;7.38;;;26.50;54.20;;;;;;5044474;28;20112;-86
2021/06/19 12:41:06;;;;;;;7.15;6.45;;;26.50;54.10;;;;;;5046666;28;20128;-88
2021/06/19 12:43:32;;;;;;;6.70;6.00;;;26.50;54.30;;;;;;5027713;28;20435;-88
2021/06/19 12:45:58;;;;;;;5.95;5.35;;;26.50;54.40;;;;;;5047671;28;20467;-88
2021/06/19 12:48:36;;;;;;;6.53;5.93;;;26.30;54.30;;;;;;5046508;28;20029;-88
2021/06/19 12:51:03;;;;;;;7.03;6.32;;;26.30;54.50;;;;;;5025713;28;20022;-87
2021/06/19 12:53:31;;;;;;;7.38;6.30;;;26.40;54.40;;;;;;5043841;28;20067;-87
2021/06/19 12:56:00;;;;;;;6.05;5.50;;;26.50;54.30;;;;;;5043909;28;20036;-86